sensor_id;sensor_type;location;lat;lon;timestamp;pressure;altitude;pressure_sealevel;temperature;humidity
62126;BME280;48112;53.282;6.150;2023-03-25T00:00:01;99928.03;;;17.28;59.40
62126;BME280;48112;53.282;6.150;2023-03-25T00:01:10;99932.28;;;17.29;59.46
62126;BME280;48112;53.282;6.150;2023-03-25T00:02:14;99925.66;;;17.30;59.52
62126;BME280;48112;53.282;6.150;2023-03-25T00:03:17;99931.13;;;17.30;59.68
62126;BME280;48112;53.282;6.150;2023-03-25T00:04:18;99926.84;;;17.29;59.37
62126;BME280;48112;53.282;6.150;2023-03-25T00:05:21;99915.91;;;17.29;59.58
62126;BME280;48112;53.282;6.150;2023-03-25T00:06:23;99927.63;;;17.29;59.55
62126;BME280;48112;53.282;6.150;2023-03-25T00:07:25;99927.63;;;17.29;59.78
62126;BME280;48112;53.282;6.150;2023-03-25T00:08:27;99933.06;;;17.29;59.63
62126;BME280;48112;53.282;6.150;2023-03-25T00:09:30;99922.16;;;17.29;59.37
62126;BME280;48112;53.282;6.150;2023-03-25T00:10:31;99927.63;;;17.29;59.73
62126;BME280;48112;53.282;6.150;2023-03-25T00:11:34;99928.41;;;17.30;59.39
62126;BME280;48112;53.282;6.150;2023-03-25T00:12:36;99929.56;;;17.29;59.65
62126;BME280;48112;53.282;6.150;2023-03-25T00:13:39;99932.28;;;17.29;59.61
62126;BME280;48112;53.282;6.150;2023-03-25T00:14:42;99926.84;;;17.29;59.39
62126;BME280;48112;53.282;6.150;2023-03-25T00:15:54;99926.03;;;17.28;59.51
62126;BME280;48112;53.282;6.150;2023-03-25T00:16:59;99925.28;;;17.28;59.38
62126;BME280;48112;53.282;6.150;2023-03-25T00:18:02;99913.59;;;17.27;59.32
62126;BME280;48112;53.282;6.150;2023-03-25T00:19:04;99919.84;;;17.28;59.24
62126;BME280;48112;53.282;6.150;2023-03-25T00:20:07;99926.03;;;17.28;59.51
62126;BME280;48112;53.282;6.150;2023-03-25T00:21:10;99926.03;;;17.28;59.50
62126;BME280;48112;53.282;6.150;2023-03-25T00:22:13;99925.28;;;17.28;59.33
62126;BME280;48112;53.282;6.150;2023-03-25T00:23:14;99924.09;;;17.29;59.29
62126;BME280;48112;53.282;6.150;2023-03-25T00:24:17;99919.06;;;17.27;59.27
62126;BME280;48112;53.282;6.150;2023-03-25T00:25:19;99915.13;;;17.28;59.14
62126;BME280;48112;53.282;6.150;2023-03-25T00:26:22;99914.38;;;17.28;59.37
62126;BME280;48112;53.282;6.150;2023-03-25T00:27:24;99919.84;;;17.28;59.44
62126;BME280;48112;53.282;6.150;2023-03-25T00:28:27;99924.09;;;17.29;59.03
62126;BME280;48112;53.282;6.150;2023-03-25T00:29:29;99919.84;;;17.28;59.26
62126;BME280;48112;53.282;6.150;2023-03-25T00:30:32;99919.84;;;17.28;59.42
62126;BME280;48112;53.282;6.150;2023-03-25T00:31:33;99925.28;;;17.28;58.96
62126;BME280;48112;53.282;6.150;2023-03-25T00:32:37;99922.56;;;17.28;59.23
62126;BME280;48112;53.282;6.150;2023-03-25T00:33:39;99913.59;;;17.27;59.20
62126;BME280;48112;53.282;6.150;2023-03-25T00:34:45;99921.00;;;17.27;59.12
62126;BME280;48112;53.282;6.150;2023-03-25T00:35:50;99925.28;;;17.28;59.26
62126;BME280;48112;53.282;6.150;2023-03-25T00:36:53;99927.25;;;17.27;59.35
62126;BME280;48112;53.282;6.150;2023-03-25T00:37:54;99927.66;;;17.26;59.18
62126;BME280;48112;53.282;6.150;2023-03-25T00:39:00;99922.56;;;17.28;59.06
62126;BME280;48112;53.282;6.150;2023-03-25T00:40:02;99931.50;;;17.28;59.01
62126;BME280;48112;53.282;6.150;2023-03-25T00:41:13;99930.75;;;17.28;59.20
62126;BME280;48112;53.282;6.150;2023-03-25T00:42:17;99929.97;;;17.27;59.20
62126;BME280;48112;53.282;6.150;2023-03-25T00:43:26;99922.56;;;17.28;59.40
62126;BME280;48112;53.282;6.150;2023-03-25T00:44:28;99923.72;;;17.27;59.33
62126;BME280;48112;53.282;6.150;2023-03-25T00:45:31;99929.97;;;17.27;59.14
62126;BME280;48112;53.282;6.150;2023-03-25T00:46:33;99926.47;;;17.27;59.02
62126;BME280;48112;53.282;6.150;2023-03-25T00:47:37;99934.66;;;17.27;59.35
62126;BME280;48112;53.282;6.150;2023-03-25T00:48:39;99921.00;;;17.27;59.23
62126;BME280;48112;53.282;6.150;2023-03-25T00:49:43;99923.72;;;17.27;59.20
62126;BME280;48112;53.282;6.150;2023-03-25T00:50:45;99924.91;;;17.26;59.08
62126;BME280;48112;53.282;6.150;2023-03-25T00:51:49;99926.47;;;17.27;59.10
62126;BME280;48112;53.282;6.150;2023-03-25T00:52:53;99931.16;;;17.26;59.21
62126;BME280;48112;53.282;6.150;2023-03-25T00:53:56;99923.72;;;17.27;58.86
62126;BME280;48112;53.282;6.150;2023-03-25T00:55:00;99927.66;;;17.26;58.89
62126;BME280;48112;53.282;6.150;2023-03-25T00:56:03;99927.66;;;17.26;58.91
62126;BME280;48112;53.282;6.150;2023-03-25T00:57:05;99936.63;;;17.26;58.87
62126;BME280;48112;53.282;6.150;2023-03-25T00:58:08;99927.66;;;17.26;59.27
62126;BME280;48112;53.282;6.150;2023-03-25T00:59:10;99934.66;;;17.27;59.13
62126;BME280;48112;53.282;6.150;2023-03-25T01:00:13;99934.66;;;17.27;59.21
62126;BME280;48112;53.282;6.150;2023-03-25T01:01:16;99930.38;;;17.26;59.11
62126;BME280;48112;53.282;6.150;2023-03-25T01:02:23;99931.16;;;17.26;59.02
62126;BME280;48112;53.282;6.150;2023-03-25T01:03:26;99924.91;;;17.26;59.11
62126;BME280;48112;53.282;6.150;2023-03-25T01:04:30;99930.38;;;17.26;58.86
62126;BME280;48112;53.282;6.150;2023-03-25T01:05:31;99920.66;;;17.25;59.07
62126;BME280;48112;53.282;6.150;2023-03-25T01:06:34;99933.09;;;17.26;59.04
62126;BME280;48112;53.282;6.150;2023-03-25T01:07:36;99935.84;;;17.26;58.93
62126;BME280;48112;53.282;6.150;2023-03-25T01:08:41;99943.22;;;17.25;59.03
62126;BME280;48112;53.282;6.150;2023-03-25T01:09:44;99932.31;;;17.25;58.83
62126;BME280;48112;53.282;6.150;2023-03-25T01:10:47;99929.59;;;17.25;58.88
62126;BME280;48112;53.282;6.150;2023-03-25T01:11:49;99930.38;;;17.26;58.87
62126;BME280;48112;53.282;6.150;2023-03-25T01:12:53;99922.19;;;17.26;58.78
62126;BME280;48112;53.282;6.150;2023-03-25T01:13:55;99927.66;;;17.26;58.87
62126;BME280;48112;53.282;6.150;2023-03-25T01:15:00;99926.88;;;17.25;59.08
62126;BME280;48112;53.282;6.150;2023-03-25T01:16:05;99925.34;;;17.24;58.92
62126;BME280;48112;53.282;6.150;2023-03-25T01:17:08;99933.09;;;17.26;58.92
62126;BME280;48112;53.282;6.150;2023-03-25T01:18:10;99937.03;;;17.25;58.88
62126;BME280;48112;53.282;6.150;2023-03-25T01:19:14;99937.03;;;17.25;58.98
62126;BME280;48112;53.282;6.150;2023-03-25T01:20:16;99933.88;;;17.26;59.02
62126;BME280;48112;53.282;6.150;2023-03-25T01:21:20;99932.31;;;17.25;59.16
62126;BME280;48112;53.282;6.150;2023-03-25T01:22:21;99926.88;;;17.25;59.12
62126;BME280;48112;53.282;6.150;2023-03-25T01:23:24;99928.06;;;17.24;58.84
62126;BME280;48112;53.282;6.150;2023-03-25T01:24:26;99926.13;;;17.25;58.90
62126;BME280;48112;53.282;6.150;2023-03-25T01:25:28;99926.13;;;17.25;59.02
62126;BME280;48112;53.282;6.150;2023-03-25T01:26:30;99931.56;;;17.25;59.03
62126;BME280;48112;53.282;6.150;2023-03-25T01:27:33;99924.13;;;17.25;58.94
62126;BME280;48112;53.282;6.150;2023-03-25T01:28:34;99924.53;;;17.24;58.79
62126;BME280;48112;53.282;6.150;2023-03-25T01:29:37;99926.13;;;17.25;59.04
62126;BME280;48112;53.282;6.150;2023-03-25T01:30:39;99917.16;;;17.24;58.93
62126;BME280;48112;53.282;6.150;2023-03-25T01:31:42;99925.34;;;17.24;58.80
62126;BME280;48112;53.282;6.150;2023-03-25T01:32:44;99925.34;;;17.24;58.73
62126;BME280;48112;53.282;6.150;2023-03-25T01:33:47;99928.84;;;17.25;59.08
62126;BME280;48112;53.282;6.150;2023-03-25T01:34:50;99928.84;;;17.25;58.70
62126;BME280;48112;53.282;6.150;2023-03-25T01:35:52;99924.53;;;17.24;58.63
62126;BME280;48112;53.282;6.150;2023-03-25T01:36:54;99913.63;;;17.24;58.71
62126;BME280;48112;53.282;6.150;2023-03-25T01:37:58;99913.63;;;17.24;58.60
62126;BME280;48112;53.282;6.150;2023-03-25T01:39:00;99919.09;;;17.24;58.84
62126;BME280;48112;53.282;6.150;2023-03-25T01:40:05;99916.38;;;17.24;58.58
62126;BME280;48112;53.282;6.150;2023-03-25T01:41:10;99921.06;;;17.23;58.98
62126;BME280;48112;53.282;6.150;2023-03-25T01:42:13;99912.09;;;17.23;58.71
62126;BME280;48112;53.282;6.150;2023-03-25T01:43:15;99912.88;;;17.23;58.81
62126;BME280;48112;53.282;6.150;2023-03-25T01:45:38;99912.88;;;17.23;58.52
62126;BME280;48112;53.282;6.150;2023-03-25T01:46:41;99909.38;;;17.23;58.75
62126;BME280;48112;53.282;6.150;2023-03-25T01:47:45;99912.09;;;17.23;58.50
62126;BME280;48112;53.282;6.150;2023-03-25T01:48:49;99916.78;;;17.22;58.95
62126;BME280;48112;53.282;6.150;2023-03-25T01:49:52;99915.59;;;17.23;58.62
62126;BME280;48112;53.282;6.150;2023-03-25T01:50:56;99916.03;;;17.22;58.87
62126;BME280;48112;53.282;6.150;2023-03-25T01:52:00;99913.28;;;17.22;58.82
62126;BME280;48112;53.282;6.150;2023-03-25T01:53:04;99908.59;;;17.22;58.68
62126;BME280;48112;53.282;6.150;2023-03-25T01:54:07;99913.28;;;17.22;58.63
62126;BME280;48112;53.282;6.150;2023-03-25T01:55:10;99902.38;;;17.22;58.81
62126;BME280;48112;53.282;6.150;2023-03-25T01:56:12;99905.84;;;17.22;58.67
62126;BME280;48112;53.282;6.150;2023-03-25T01:57:17;99899.66;;;17.22;58.71
62126;BME280;48112;53.282;6.150;2023-03-25T01:58:20;99905.09;;;17.22;58.63
62126;BME280;48112;53.282;6.150;2023-03-25T01:59:25;99904.31;;;17.21;58.80
62126;BME280;48112;53.282;6.150;2023-03-25T02:00:28;99905.09;;;17.22;58.56
62126;BME280;48112;53.282;6.150;2023-03-25T02:01:32;99900.81;;;17.21;58.64
62126;BME280;48112;53.282;6.150;2023-03-25T02:02:34;99897.34;;;17.20;58.62
62126;BME280;48112;53.282;6.150;2023-03-25T02:03:40;99905.50;;;17.20;58.63
62126;BME280;48112;53.282;6.150;2023-03-25T02:04:47;99900.81;;;17.21;58.46
62126;BME280;48112;53.282;6.150;2023-03-25T02:06:01;99902.78;;;17.20;58.59
62126;BME280;48112;53.282;6.150;2023-03-25T02:07:06;99898.50;;;17.19;58.16
62126;BME280;48112;53.282;6.150;2023-03-25T02:08:08;99898.09;;;17.21;58.57
62126;BME280;48112;53.282;6.150;2023-03-25T02:09:12;99899.28;;;17.20;58.72
62126;BME280;48112;53.282;6.150;2023-03-25T02:10:16;99902.00;;;17.20;58.55
62126;BME280;48112;53.282;6.150;2023-03-25T02:11:18;99895.75;;;17.19;58.60
62126;BME280;48112;53.282;6.150;2023-03-25T02:12:20;99896.56;;;17.20;58.36
62126;BME280;48112;53.282;6.150;2023-03-25T02:13:23;99891.09;;;17.20;58.56
62126;BME280;48112;53.282;6.150;2023-03-25T02:14:26;99893.81;;;17.20;58.33
62126;BME280;48112;53.282;6.150;2023-03-25T02:15:30;99894.59;;;17.20;58.40
62126;BME280;48112;53.282;6.150;2023-03-25T02:16:40;99896.56;;;17.20;58.42
62126;BME280;48112;53.282;6.150;2023-03-25T02:19:13;99889.16;;;17.20;58.53
62126;BME280;48112;53.282;6.150;2023-03-25T02:21:52;99896.56;;;17.20;58.35
62126;BME280;48112;53.282;6.150;2023-03-25T02:23:08;99891.09;;;17.20;58.24
62126;BME280;48112;53.282;6.150;2023-03-25T02:24:31;99896.56;;;17.20;58.52
62126;BME280;48112;53.282;6.150;2023-03-25T02:25:47;99899.28;;;17.20;58.28
62126;BME280;48112;53.282;6.150;2023-03-25T02:27:02;99889.53;;;17.19;58.30
62126;BME280;48112;53.282;6.150;2023-03-25T02:28:16;99888.38;;;17.20;58.40
62126;BME280;48112;53.282;6.150;2023-03-25T02:29:28;99889.53;;;17.19;58.19
62126;BME280;48112;53.282;6.150;2023-03-25T02:32:02;99893.03;;;17.19;58.14
62126;BME280;48112;53.282;6.150;2023-03-25T02:35:52;99890.31;;;17.19;58.10
62126;BME280;48112;53.282;6.150;2023-03-25T02:37:04;99890.31;;;17.19;58.12
62126;BME280;48112;53.282;6.150;2023-03-25T02:38:18;99884.84;;;17.19;58.34
62126;BME280;48112;53.282;6.150;2023-03-25T02:39:27;99887.59;;;17.19;58.48
62126;BME280;48112;53.282;6.150;2023-03-25T02:40:35;99891.09;;;17.20;58.46
62126;BME280;48112;53.282;6.150;2023-03-25T02:41:38;99903.94;;;17.19;58.31
62126;BME280;48112;53.282;6.150;2023-03-25T02:42:44;99894.97;;;17.19;58.35
62126;BME280;48112;53.282;6.150;2023-03-25T02:43:50;99893.03;;;17.19;58.25
62126;BME280;48112;53.282;6.150;2023-03-25T02:44:55;99900.44;;;17.19;58.31
62126;BME280;48112;53.282;6.150;2023-03-25T02:46:00;99889.53;;;17.19;58.05
62126;BME280;48112;53.282;6.150;2023-03-25T02:47:06;99890.31;;;17.19;58.04
62126;BME280;48112;53.282;6.150;2023-03-25T02:48:10;99894.97;;;17.19;58.05
62126;BME280;48112;53.282;6.150;2023-03-25T02:49:16;99902.00;;;17.20;58.21
62126;BME280;48112;53.282;6.150;2023-03-25T02:50:20;99895.75;;;17.19;58.18
62126;BME280;48112;53.282;6.150;2023-03-25T02:51:27;99897.72;;;17.19;58.14
62126;BME280;48112;53.282;6.150;2023-03-25T02:52:30;99899.28;;;17.20;57.96
62126;BME280;48112;53.282;6.150;2023-03-25T02:53:35;99891.09;;;17.20;57.89
62126;BME280;48112;53.282;6.150;2023-03-25T02:54:39;99900.44;;;17.19;58.21
62126;BME280;48112;53.282;6.150;2023-03-25T02:55:45;99902.00;;;17.20;57.98
62126;BME280;48112;53.282;6.150;2023-03-25T02:56:48;99895.75;;;17.19;57.91
62126;BME280;48112;53.282;6.150;2023-03-25T02:57:51;99899.28;;;17.20;58.46
62126;BME280;48112;53.282;6.150;2023-03-25T02:58:55;99894.97;;;17.19;58.24
62126;BME280;48112;53.282;6.150;2023-03-25T02:59:58;99893.03;;;17.19;57.87
62126;BME280;48112;53.282;6.150;2023-03-25T03:01:02;99888.78;;;17.18;58.02
62126;BME280;48112;53.282;6.150;2023-03-25T03:02:06;99895.75;;;17.19;58.11
62126;BME280;48112;53.282;6.150;2023-03-25T03:03:09;99894.97;;;17.19;58.15
62126;BME280;48112;53.282;6.150;2023-03-25T03:04:12;99890.31;;;17.19;58.10
62126;BME280;48112;53.282;6.150;2023-03-25T03:05:22;99882.13;;;17.19;58.02
62126;BME280;48112;53.282;6.150;2023-03-25T03:06:25;99877.06;;;17.18;58.08
62126;BME280;48112;53.282;6.150;2023-03-25T03:07:29;99878.63;;;17.19;58.19
62126;BME280;48112;53.282;6.150;2023-03-25T03:08:42;99881.34;;;17.19;58.00
62126;BME280;48112;53.282;6.150;2023-03-25T03:09:56;99881.34;;;17.19;58.03
62126;BME280;48112;53.282;6.150;2023-03-25T03:11:03;99878.63;;;17.19;57.91
62126;BME280;48112;53.282;6.150;2023-03-25T03:12:12;99875.88;;;17.19;58.08
62126;BME280;48112;53.282;6.150;2023-03-25T03:13:19;99875.88;;;17.19;58.13
62126;BME280;48112;53.282;6.150;2023-03-25T03:14:27;99866.94;;;17.18;58.01
62126;BME280;48112;53.282;6.150;2023-03-25T03:15:32;99872.00;;;17.20;58.00
62126;BME280;48112;53.282;6.150;2023-03-25T03:16:39;99873.16;;;17.19;57.87
62126;BME280;48112;53.282;6.150;2023-03-25T03:17:45;99872.41;;;17.18;58.16
62126;BME280;48112;53.282;6.150;2023-03-25T03:18:54;99878.63;;;17.19;57.81
62126;BME280;48112;53.282;6.150;2023-03-25T03:19:59;99873.16;;;17.19;57.99
62126;BME280;48112;53.282;6.150;2023-03-25T03:21:07;99870.44;;;17.19;57.94
62126;BME280;48112;53.282;6.150;2023-03-25T03:22:12;99873.94;;;17.19;58.05
62126;BME280;48112;53.282;6.150;2023-03-25T03:23:20;99873.16;;;17.19;57.73
62126;BME280;48112;53.282;6.150;2023-03-25T03:24:27;99873.16;;;17.19;57.88
62126;BME280;48112;53.282;6.150;2023-03-25T03:25:33;99868.91;;;17.18;57.75
62126;BME280;48112;53.282;6.150;2023-03-25T03:26:36;99872.41;;;17.18;57.84
62126;BME280;48112;53.282;6.150;2023-03-25T03:27:42;99871.63;;;17.18;57.60
62126;BME280;48112;53.282;6.150;2023-03-25T03:28:46;99872.41;;;17.18;58.20
62126;BME280;48112;53.282;6.150;2023-03-25T03:29:51;99873.56;;;17.17;57.96
62126;BME280;48112;53.282;6.150;2023-03-25T03:30:56;99868.91;;;17.18;57.97
62126;BME280;48112;53.282;6.150;2023-03-25T03:32:03;99866.94;;;17.18;57.67
62126;BME280;48112;53.282;6.150;2023-03-25T03:33:10;99871.63;;;17.18;57.79
62126;BME280;48112;53.282;6.150;2023-03-25T03:34:17;99868.91;;;17.18;57.80
62126;BME280;48112;53.282;6.150;2023-03-25T03:35:21;99858.75;;;17.18;57.80
62126;BME280;48112;53.282;6.150;2023-03-25T03:36:26;99879.81;;;17.18;57.63
62126;BME280;48112;53.282;6.150;2023-03-25T03:37:31;99866.16;;;17.18;57.86
62126;BME280;48112;53.282;6.150;2023-03-25T03:38:37;99861.50;;;17.18;57.55
62126;BME280;48112;53.282;6.150;2023-03-25T03:39:42;99875.13;;;17.18;57.84
62126;BME280;48112;53.282;6.150;2023-03-25T03:40:49;99873.56;;;17.17;57.85
62126;BME280;48112;53.282;6.150;2023-03-25T03:41:52;99870.09;;;17.17;57.64
62126;BME280;48112;53.282;6.150;2023-03-25T03:42:58;99871.63;;;17.18;57.75
62126;BME280;48112;53.282;6.150;2023-03-25T03:44:02;99872.81;;;17.17;57.66
62126;BME280;48112;53.282;6.150;2023-03-25T03:45:07;99879.81;;;17.18;57.72
62126;BME280;48112;53.282;6.150;2023-03-25T03:46:12;99871.63;;;17.18;57.74
62126;BME280;48112;53.282;6.150;2023-03-25T03:47:17;99888.00;;;17.18;57.60
62126;BME280;48112;53.282;6.150;2023-03-25T03:48:22;99871.63;;;17.18;57.90
62126;BME280;48112;53.282;6.150;2023-03-25T03:49:28;99875.53;;;17.17;57.75
62126;BME280;48112;53.282;6.150;2023-03-25T03:50:31;99870.84;;;17.17;57.61
62126;BME280;48112;53.282;6.150;2023-03-25T03:51:39;99874.34;;;17.18;57.51
62126;BME280;48112;53.282;6.150;2023-03-25T03:52:43;99874.75;;;17.16;57.55
62126;BME280;48112;53.282;6.150;2023-03-25T03:53:48;99878.28;;;17.17;57.73
62126;BME280;48112;53.282;6.150;2023-03-25T03:54:53;99878.28;;;17.17;57.51
62126;BME280;48112;53.282;6.150;2023-03-25T03:55:58;99867.34;;;17.17;57.68
62126;BME280;48112;53.282;6.150;2023-03-25T03:57:04;99874.34;;;17.18;57.64
62126;BME280;48112;53.282;6.150;2023-03-25T03:58:10;99869.31;;;17.16;57.64
62126;BME280;48112;53.282;6.150;2023-03-25T03:59:16;99875.53;;;17.17;57.82
62126;BME280;48112;53.282;6.150;2023-03-25T04:00:23;99871.63;;;17.18;57.50
62126;BME280;48112;53.282;6.150;2023-03-25T04:01:28;99875.53;;;17.17;57.60
62126;BME280;48112;53.282;6.150;2023-03-25T04:02:36;99875.53;;;17.17;57.82
62126;BME280;48112;53.282;6.150;2023-03-25T04:03:40;99866.56;;;17.16;57.58
62126;BME280;48112;53.282;6.150;2023-03-25T04:04:44;99860.34;;;17.16;57.56
62126;BME280;48112;53.282;6.150;2023-03-25T04:05:47;99881.00;;;17.17;57.74
62126;BME280;48112;53.282;6.150;2023-03-25T04:06:54;99883.72;;;17.17;57.58
62126;BME280;48112;53.282;6.150;2023-03-25T04:07:58;99861.91;;;17.17;57.44
62126;BME280;48112;53.282;6.150;2023-03-25T04:09:05;99873.97;;;17.16;57.41
62126;BME280;48112;53.282;6.150;2023-03-25T04:10:13;99883.72;;;17.17;57.83
62126;BME280;48112;53.282;6.150;2023-03-25T04:11:18;99872.81;;;17.17;57.61
62126;BME280;48112;53.282;6.150;2023-03-25T04:12:23;99869.31;;;17.16;57.63
62126;BME280;48112;53.282;6.150;2023-03-25T04:13:27;99857.63;;;17.16;57.62
62126;BME280;48112;53.282;6.150;2023-03-25T04:14:30;99868.13;;;17.17;57.57
62126;BME280;48112;53.282;6.150;2023-03-25T04:15:33;99877.50;;;17.16;57.33
62126;BME280;48112;53.282;6.150;2023-03-25T04:16:36;99875.53;;;17.17;57.39
62126;BME280;48112;53.282;6.150;2023-03-25T04:17:38;99881.00;;;17.17;57.51
62126;BME280;48112;53.282;6.150;2023-03-25T04:18:40;99873.97;;;17.16;57.64
62126;BME280;48112;53.282;6.150;2023-03-25T04:19:43;99882.16;;;17.16;57.54
62126;BME280;48112;53.282;6.150;2023-03-25T04:20:49;99882.94;;;17.16;57.38
62126;BME280;48112;53.282;6.150;2023-03-25T04:21:52;99868.53;;;17.16;57.58
62126;BME280;48112;53.282;6.150;2023-03-25T04:22:54;99868.53;;;17.16;57.74
62126;BME280;48112;53.282;6.150;2023-03-25T04:23:56;99870.09;;;17.17;57.46
62126;BME280;48112;53.282;6.150;2023-03-25T04:25:01;99879.44;;;17.16;57.21
62126;BME280;48112;53.282;6.150;2023-03-25T04:26:05;99879.44;;;17.16;57.29
62126;BME280;48112;53.282;6.150;2023-03-25T04:27:08;99879.44;;;17.16;57.26
62126;BME280;48112;53.282;6.150;2023-03-25T04:28:14;99884.13;;;17.15;57.40
62126;BME280;48112;53.282;6.150;2023-03-25T04:29:18;99878.69;;;17.15;57.38
62126;BME280;48112;53.282;6.150;2023-03-25T04:30:20;99887.63;;;17.16;57.50
62126;BME280;48112;53.282;6.150;2023-03-25T04:31:22;99879.84;;;17.14;57.15
62126;BME280;48112;53.282;6.150;2023-03-25T04:32:26;99875.16;;;17.15;57.39
62126;BME280;48112;53.282;6.150;2023-03-25T04:33:28;99881.41;;;17.15;57.32
62126;BME280;48112;53.282;6.150;2023-03-25T04:34:32;99883.34;;;17.15;57.37
62126;BME280;48112;53.282;6.150;2023-03-25T04:35:34;99887.63;;;17.16;57.36
62126;BME280;48112;53.282;6.150;2023-03-25T04:36:36;99871.66;;;17.14;57.21
62126;BME280;48112;53.282;6.150;2023-03-25T04:37:39;99875.16;;;17.15;57.23
62126;BME280;48112;53.282;6.150;2023-03-25T04:38:43;99873.97;;;17.16;57.33
62126;BME280;48112;53.282;6.150;2023-03-25T04:39:46;99873.97;;;17.16;57.43
62126;BME280;48112;53.282;6.150;2023-03-25T04:40:48;99869.72;;;17.15;57.37
62126;BME280;48112;53.282;6.150;2023-03-25T04:41:52;99881.00;;;17.17;57.34
62126;BME280;48112;53.282;6.150;2023-03-25T04:42:54;99871.66;;;17.14;57.37
62126;BME280;48112;53.282;6.150;2023-03-25T04:43:57;99871.66;;;17.14;57.40
62126;BME280;48112;53.282;6.150;2023-03-25T04:44:59;99872.44;;;17.15;57.20
62126;BME280;48112;53.282;6.150;2023-03-25T04:46:02;99873.22;;;17.15;57.07
62126;BME280;48112;53.282;6.150;2023-03-25T04:47:04;99872.44;;;17.15;57.06
62126;BME280;48112;53.282;6.150;2023-03-25T04:48:08;99875.16;;;17.15;57.12
62126;BME280;48112;53.282;6.150;2023-03-25T04:49:18;99877.91;;;17.15;57.39
62126;BME280;48112;53.282;6.150;2023-03-25T04:50:22;99874.38;;;17.14;57.23
62126;BME280;48112;53.282;6.150;2023-03-25T04:51:25;99876.34;;;17.14;57.10
62126;BME280;48112;53.282;6.150;2023-03-25T04:52:27;99875.16;;;17.15;57.09
62126;BME280;48112;53.282;6.150;2023-03-25T04:53:29;99877.91;;;17.15;57.26
62126;BME280;48112;53.282;6.150;2023-03-25T04:54:32;99870.91;;;17.14;57.15
62126;BME280;48112;53.282;6.150;2023-03-25T04:55:33;99879.09;;;17.14;57.13
62126;BME280;48112;53.282;6.150;2023-03-25T04:56:36;99876.34;;;17.14;57.49
62126;BME280;48112;53.282;6.150;2023-03-25T04:57:41;99868.19;;;17.14;57.05
62126;BME280;48112;53.282;6.150;2023-03-25T04:58:43;99877.91;;;17.15;56.96
62126;BME280;48112;53.282;6.150;2023-03-25T04:59:45;99876.34;;;17.14;57.26
62126;BME280;48112;53.282;6.150;2023-03-25T05:00:49;99876.34;;;17.14;57.48
62126;BME280;48112;53.282;6.150;2023-03-25T05:01:51;99870.91;;;17.14;56.99
62126;BME280;48112;53.282;6.150;2023-03-25T05:02:54;99862.72;;;17.14;57.00
62126;BME280;48112;53.282;6.150;2023-03-25T05:03:56;99871.66;;;17.14;56.99
62126;BME280;48112;53.282;6.150;2023-03-25T05:05:05;99872.44;;;17.15;57.28
62126;BME280;48112;53.282;6.150;2023-03-25T05:06:07;99877.53;;;17.13;57.28
62126;BME280;48112;53.282;6.150;2023-03-25T05:07:11;99870.91;;;17.14;57.22
62126;BME280;48112;53.282;6.150;2023-03-25T05:08:13;99870.91;;;17.14;56.88
62126;BME280;48112;53.282;6.150;2023-03-25T05:09:16;99869.34;;;17.13;57.01
62126;BME280;48112;53.282;6.150;2023-03-25T05:10:20;99870.91;;;17.14;57.05
62126;BME280;48112;53.282;6.150;2023-03-25T05:11:23;99876.34;;;17.14;57.21
62126;BME280;48112;53.282;6.150;2023-03-25T05:12:25;99870.91;;;17.14;57.00
62126;BME280;48112;53.282;6.150;2023-03-25T05:13:29;99875.56;;;17.13;56.79
62126;BME280;48112;53.282;6.150;2023-03-25T05:14:30;99868.59;;;17.12;56.92
62126;BME280;48112;53.282;6.150;2023-03-25T05:15:33;99864.66;;;17.13;57.10
62126;BME280;48112;53.282;6.150;2023-03-25T05:16:39;99867.41;;;17.13;57.38
62126;BME280;48112;53.282;6.150;2023-03-25T05:17:42;99874.78;;;17.13;56.98
62126;BME280;48112;53.282;6.150;2023-03-25T05:18:44;99865.84;;;17.12;56.92
62126;BME280;48112;53.282;6.150;2023-03-25T05:19:47;99868.59;;;17.12;56.82
62126;BME280;48112;53.282;6.150;2023-03-25T05:20:48;99878.31;;;17.13;57.26
62126;BME280;48112;53.282;6.150;2023-03-25T05:21:51;99870.13;;;17.13;57.04
62126;BME280;48112;53.282;6.150;2023-03-25T05:22:53;99876.78;;;17.12;56.88
62126;BME280;48112;53.282;6.150;2023-03-25T05:23:57;99869.34;;;17.13;56.92
62126;BME280;48112;53.282;6.150;2023-03-25T05:25:02;99868.59;;;17.12;56.86
62126;BME280;48112;53.282;6.150;2023-03-25T05:26:07;99867.81;;;17.12;56.77
62126;BME280;48112;53.282;6.150;2023-03-25T05:27:08;99867.03;;;17.11;56.90
62126;BME280;48112;53.282;6.150;2023-03-25T05:28:11;99876.00;;;17.12;57.11
62126;BME280;48112;53.282;6.150;2023-03-25T05:29:15;99873.25;;;17.12;56.91
62126;BME280;48112;53.282;6.150;2023-03-25T05:30:18;99878.72;;;17.12;56.95
62126;BME280;48112;53.282;6.150;2023-03-25T05:31:20;99873.25;;;17.12;57.16
62126;BME280;48112;53.282;6.150;2023-03-25T05:32:23;99879.50;;;17.12;56.98
62126;BME280;48112;53.282;6.150;2023-03-25T05:33:26;99884.16;;;17.12;56.99
62126;BME280;48112;53.282;6.150;2023-03-25T05:34:28;99878.72;;;17.12;57.09
62126;BME280;48112;53.282;6.150;2023-03-25T05:35:31;99878.72;;;17.12;56.91
62126;BME280;48112;53.282;6.150;2023-03-25T05:36:34;99883.38;;;17.11;56.80
62126;BME280;48112;53.282;6.150;2023-03-25T05:37:36;99885.69;;;17.13;57.13
62126;BME280;48112;53.282;6.150;2023-03-25T05:38:39;99883.38;;;17.11;56.73
62126;BME280;48112;53.282;6.150;2023-03-25T05:39:43;99881.44;;;17.12;57.10
62126;BME280;48112;53.282;6.150;2023-03-25T05:40:46;99895.06;;;17.12;56.73
62126;BME280;48112;53.282;6.150;2023-03-25T05:41:49;99888.09;;;17.11;56.71
62126;BME280;48112;53.282;6.150;2023-03-25T05:42:55;99884.16;;;17.12;56.67
62126;BME280;48112;53.282;6.150;2023-03-25T05:43:58;99886.13;;;17.11;56.89
62126;BME280;48112;53.282;6.150;2023-03-25T05:45:02;99883.38;;;17.11;56.78
62126;BME280;48112;53.282;6.150;2023-03-25T05:46:05;99883.38;;;17.11;56.89
62126;BME280;48112;53.282;6.150;2023-03-25T05:47:07;99891.56;;;17.11;56.86
62126;BME280;48112;53.282;6.150;2023-03-25T05:48:09;99888.09;;;17.11;56.77